sensor_id;sensor_type;location;lat;lon;timestamp;P1;durP1;ratioP1;P2;durP2;ratioP2
16689;SDS011;8458;52.220;9.884;2023-09-19T00:01:29;1.83;;;0.50;;
16689;SDS011;8458;52.220;9.884;2023-09-19T00:03:58;0.33;;;0.33;;
16689;SDS011;8458;52.220;9.884;2023-09-19T00:06:25;0.60;;;0.60;;
16689;SDS011;8458;52.220;9.884;2023-09-19T00:08:56;1.47;;;0.40;;
16689;SDS011;8458;52.220;9.884;2023-09-19T00:11:23;1.37;;;0.40;;
16689;SDS011;8458;52.220;9.884;2023-09-19T00:13:51;1.27;;;0.70;;
16689;SDS011;8458;52.220;9.884;2023-09-19T00:16:18;0.87;;;0.60;;
16689;SDS011;8458;52.220;9.884;2023-09-19T00:18:45;0.90;;;0.60;;
16689;SDS011;8458;52.220;9.884;2023-09-19T00:21:13;1.57;;;1.00;;
16689;SDS011;8458;52.220;9.884;2023-09-19T00:23:40;2.67;;;1.07;;
16689;SDS011;8458;52.220;9.884;2023-09-19T00:26:07;1.07;;;0.93;;
16689;SDS011;8458;52.220;9.884;2023-09-19T00:28:33;1.40;;;1.17;;
16689;SDS011;8458;52.220;9.884;2023-09-19T00:31:00;1.20;;;0.90;;
16689;SDS011;8458;52.220;9.884;2023-09-19T00:33:27;1.03;;;0.90;;
16689;SDS011;8458;52.220;9.884;2023-09-19T00:35:54;0.90;;;0.80;;
16689;SDS011;8458;52.220;9.884;2023-09-19T00:38:24;2.17;;;0.93;;
16689;SDS011;8458;52.220;9.884;2023-09-19T00:40:52;1.17;;;1.07;;
16689;SDS011;8458;52.220;9.884;2023-09-19T00:43:19;1.40;;;0.80;;
16689;SDS011;8458;52.220;9.884;2023-09-19T00:45:48;1.17;;;0.90;;
16689;SDS011;8458;52.220;9.884;2023-09-19T00:48:16;1.70;;;1.00;;
16689;SDS011;8458;52.220;9.884;2023-09-19T00:50:44;2.20;;;1.20;;
16689;SDS011;8458;52.220;9.884;2023-09-19T00:53:13;2.50;;;1.10;;
16689;SDS011;8458;52.220;9.884;2023-09-19T00:55:44;1.60;;;1.10;;
16689;SDS011;8458;52.220;9.884;2023-09-19T00:58:11;1.20;;;1.10;;
16689;SDS011;8458;52.220;9.884;2023-09-19T01:00:38;1.40;;;1.30;;
16689;SDS011;8458;52.220;9.884;2023-09-19T01:03:09;1.77;;;1.40;;
16689;SDS011;8458;52.220;9.884;2023-09-19T01:05:38;2.10;;;1.30;;
16689;SDS011;8458;52.220;9.884;2023-09-19T01:08:05;2.10;;;1.70;;
16689;SDS011;8458;52.220;9.884;2023-09-19T01:10:32;2.23;;;1.97;;
16689;SDS011;8458;52.220;9.884;2023-09-19T01:13:01;2.37;;;2.20;;
16689;SDS011;8458;52.220;9.884;2023-09-19T01:15:35;2.50;;;2.10;;
16689;SDS011;8458;52.220;9.884;2023-09-19T01:18:11;2.07;;;1.80;;
16689;SDS011;8458;52.220;9.884;2023-09-19T01:20:51;2.80;;;2.40;;
16689;SDS011;8458;52.220;9.884;2023-09-19T01:23:23;1.97;;;1.80;;
16689;SDS011;8458;52.220;9.884;2023-09-19T01:26:04;3.10;;;2.43;;
16689;SDS011;8458;52.220;9.884;2023-09-19T01:28:37;3.60;;;2.30;;
16689;SDS011;8458;52.220;9.884;2023-09-19T01:31:13;2.30;;;2.20;;
16689;SDS011;8458;52.220;9.884;2023-09-19T01:33:53;3.07;;;2.80;;
16689;SDS011;8458;52.220;9.884;2023-09-19T01:36:25;2.60;;;2.40;;
16689;SDS011;8458;52.220;9.884;2023-09-19T01:38:55;2.80;;;2.30;;
16689;SDS011;8458;52.220;9.884;2023-09-19T01:41:30;3.00;;;2.20;;
16689;SDS011;8458;52.220;9.884;2023-09-19T01:44:06;3.00;;;2.60;;
16689;SDS011;8458;52.220;9.884;2023-09-19T01:46:41;2.83;;;2.23;;
16689;SDS011;8458;52.220;9.884;2023-09-19T01:49:15;2.73;;;2.23;;
16689;SDS011;8458;52.220;9.884;2023-09-19T01:51:51;3.93;;;2.60;;
16689;SDS011;8458;52.220;9.884;2023-09-19T01:54:30;3.47;;;2.10;;
16689;SDS011;8458;52.220;9.884;2023-09-19T01:57:04;3.03;;;1.83;;
16689;SDS011;8458;52.220;9.884;2023-09-19T01:59:35;3.60;;;1.80;;
16689;SDS011;8458;52.220;9.884;2023-09-19T02:02:17;2.97;;;2.17;;
16689;SDS011;8458;52.220;9.884;2023-09-19T02:04:47;3.27;;;1.87;;
16689;SDS011;8458;52.220;9.884;2023-09-19T02:07:15;3.33;;;1.77;;
16689;SDS011;8458;52.220;9.884;2023-09-19T02:09:42;3.70;;;2.10;;
16689;SDS011;8458;52.220;9.884;2023-09-19T02:12:08;2.80;;;1.73;;
16689;SDS011;8458;52.220;9.884;2023-09-19T02:14:35;2.77;;;1.63;;
16689;SDS011;8458;52.220;9.884;2023-09-19T02:17:03;2.77;;;1.50;;
16689;SDS011;8458;52.220;9.884;2023-09-19T02:19:33;1.83;;;1.60;;
16689;SDS011;8458;52.220;9.884;2023-09-19T02:21:59;2.10;;;1.80;;
16689;SDS011;8458;52.220;9.884;2023-09-19T02:24:28;2.83;;;1.80;;
16689;SDS011;8458;52.220;9.884;2023-09-19T02:26:54;3.17;;;2.07;;
16689;SDS011;8458;52.220;9.884;2023-09-19T02:29:21;4.03;;;2.40;;
16689;SDS011;8458;52.220;9.884;2023-09-19T02:31:48;2.83;;;2.10;;
16689;SDS011;8458;52.220;9.884;2023-09-19T02:34:14;3.83;;;2.07;;
16689;SDS011;8458;52.220;9.884;2023-09-19T02:36:44;3.70;;;2.17;;
16689;SDS011;8458;52.220;9.884;2023-09-19T02:39:11;3.07;;;2.07;;
16689;SDS011;8458;52.220;9.884;2023-09-19T02:41:38;2.47;;;2.17;;
16689;SDS011;8458;52.220;9.884;2023-09-19T02:44:06;2.93;;;2.30;;
16689;SDS011;8458;52.220;9.884;2023-09-19T02:46:33;3.67;;;2.20;;
16689;SDS011;8458;52.220;9.884;2023-09-19T02:49:01;3.23;;;2.60;;
16689;SDS011;8458;52.220;9.884;2023-09-19T02:51:30;3.13;;;2.10;;
16689;SDS011;8458;52.220;9.884;2023-09-19T02:53:58;2.43;;;2.20;;
16689;SDS011;8458;52.220;9.884;2023-09-19T02:56:25;3.40;;;2.30;;
16689;SDS011;8458;52.220;9.884;2023-09-19T02:58:51;2.93;;;2.53;;
16689;SDS011;8458;52.220;9.884;2023-09-19T03:01:20;2.63;;;2.23;;
16689;SDS011;8458;52.220;9.884;2023-09-19T03:03:47;2.70;;;2.40;;
16689;SDS011;8458;52.220;9.884;2023-09-19T03:06:14;3.07;;;2.40;;
16689;SDS011;8458;52.220;9.884;2023-09-19T03:08:40;2.87;;;2.20;;
16689;SDS011;8458;52.220;9.884;2023-09-19T03:11:10;3.37;;;2.33;;
16689;SDS011;8458;52.220;9.884;2023-09-19T03:13:38;2.93;;;2.53;;
16689;SDS011;8458;52.220;9.884;2023-09-19T03:16:05;3.20;;;2.47;;
16689;SDS011;8458;52.220;9.884;2023-09-19T03:18:31;3.53;;;2.43;;
16689;SDS011;8458;52.220;9.884;2023-09-19T03:20:58;3.77;;;1.80;;
16689;SDS011;8458;52.220;9.884;2023-09-19T03:23:25;4.20;;;1.90;;
16689;SDS011;8458;52.220;9.884;2023-09-19T03:25:52;2.30;;;1.90;;
16689;SDS011;8458;52.220;9.884;2023-09-19T03:28:20;3.07;;;1.73;;
16689;SDS011;8458;52.220;9.884;2023-09-19T03:30:56;3.07;;;2.43;;
16689;SDS011;8458;52.220;9.884;2023-09-19T03:33:24;3.20;;;2.90;;
16689;SDS011;8458;52.220;9.884;2023-09-19T03:35:51;2.60;;;2.13;;
16689;SDS011;8458;52.220;9.884;2023-09-19T03:38:18;3.30;;;2.57;;
16689;SDS011;8458;52.220;9.884;2023-09-19T03:40:46;5.90;;;2.60;;
16689;SDS011;8458;52.220;9.884;2023-09-19T03:43:13;3.80;;;2.60;;
16689;SDS011;8458;52.220;9.884;2023-09-19T03:45:41;3.03;;;2.53;;
16689;SDS011;8458;52.220;9.884;2023-09-19T03:48:08;3.87;;;2.57;;
16689;SDS011;8458;52.220;9.884;2023-09-19T03:50:35;2.83;;;2.50;;
16689;SDS011;8458;52.220;9.884;2023-09-19T03:53:01;2.60;;;2.40;;
16689;SDS011;8458;52.220;9.884;2023-09-19T03:55:28;3.00;;;2.50;;
16689;SDS011;8458;52.220;9.884;2023-09-19T03:57:55;4.00;;;2.90;;
16689;SDS011;8458;52.220;9.884;2023-09-19T04:00:22;3.50;;;2.93;;
16689;SDS011;8458;52.220;9.884;2023-09-19T04:02:52;4.37;;;2.53;;
16689;SDS011;8458;52.220;9.884;2023-09-19T04:05:21;3.63;;;2.83;;
16689;SDS011;8458;52.220;9.884;2023-09-19T04:07:47;3.33;;;3.03;;
16689;SDS011;8458;52.220;9.884;2023-09-19T04:10:15;3.43;;;2.67;;
16689;SDS011;8458;52.220;9.884;2023-09-19T04:12:50;4.33;;;2.77;;
16689;SDS011;8458;52.220;9.884;2023-09-19T04:15:17;4.47;;;3.20;;
16689;SDS011;8458;52.220;9.884;2023-09-19T04:17:43;4.33;;;3.37;;
16689;SDS011;8458;52.220;9.884;2023-09-19T04:20:11;5.10;;;2.90;;
16689;SDS011;8458;52.220;9.884;2023-09-19T04:22:38;3.70;;;2.80;;
16689;SDS011;8458;52.220;9.884;2023-09-19T04:25:05;3.00;;;2.57;;
16689;SDS011;8458;52.220;9.884;2023-09-19T04:27:33;5.17;;;3.20;;
16689;SDS011;8458;52.220;9.884;2023-09-19T04:29:59;3.80;;;3.07;;
16689;SDS011;8458;52.220;9.884;2023-09-19T04:32:34;4.23;;;2.90;;
16689;SDS011;8458;52.220;9.884;2023-09-19T04:35:01;4.47;;;2.90;;
16689;SDS011;8458;52.220;9.884;2023-09-19T04:37:32;5.70;;;3.43;;
16689;SDS011;8458;52.220;9.884;2023-09-19T04:39:58;3.27;;;2.97;;
16689;SDS011;8458;52.220;9.884;2023-09-19T04:42:25;3.60;;;3.30;;
16689;SDS011;8458;52.220;9.884;2023-09-19T04:44:52;3.23;;;2.93;;
16689;SDS011;8458;52.220;9.884;2023-09-19T04:47:19;3.33;;;3.03;;
16689;SDS011;8458;52.220;9.884;2023-09-19T04:49:46;4.50;;;3.33;;
16689;SDS011;8458;52.220;9.884;2023-09-19T04:52:12;4.90;;;3.40;;
16689;SDS011;8458;52.220;9.884;2023-09-19T04:54:41;5.17;;;3.40;;
16689;SDS011;8458;52.220;9.884;2023-09-19T04:57:08;3.33;;;3.03;;
16689;SDS011;8458;52.220;9.884;2023-09-19T04:59:34;4.47;;;3.27;;
16689;SDS011;8458;52.220;9.884;2023-09-19T05:02:01;5.00;;;3.43;;
16689;SDS011;8458;52.220;9.884;2023-09-19T05:04:28;4.33;;;3.03;;
16689;SDS011;8458;52.220;9.884;2023-09-19T05:06:54;3.27;;;2.93;;
16689;SDS011;8458;52.220;9.884;2023-09-19T05:09:21;3.70;;;3.30;;
16689;SDS011;8458;52.220;9.884;2023-09-19T05:11:49;4.17;;;3.17;;
16689;SDS011;8458;52.220;9.884;2023-09-19T05:14:16;4.57;;;2.77;;
16689;SDS011;8458;52.220;9.884;2023-09-19T05:16:42;4.00;;;2.70;;
16689;SDS011;8458;52.220;9.884;2023-09-19T05:19:09;4.07;;;2.80;;
16689;SDS011;8458;52.220;9.884;2023-09-19T05:21:36;3.90;;;3.03;;
16689;SDS011;8458;52.220;9.884;2023-09-19T05:24:04;3.17;;;2.50;;
16689;SDS011;8458;52.220;9.884;2023-09-19T05:26:31;3.27;;;2.73;;
16689;SDS011;8458;52.220;9.884;2023-09-19T05:28:59;4.10;;;2.80;;
16689;SDS011;8458;52.220;9.884;2023-09-19T05:31:26;5.53;;;2.77;;
16689;SDS011;8458;52.220;9.884;2023-09-19T05:33:52;4.00;;;3.60;;
16689;SDS011;8458;52.220;9.884;2023-09-19T05:36:19;4.40;;;3.57;;
16689;SDS011;8458;52.220;9.884;2023-09-19T05:38:46;5.40;;;3.60;;
16689;SDS011;8458;52.220;9.884;2023-09-19T05:41:15;3.90;;;3.17;;
16689;SDS011;8458;52.220;9.884;2023-09-19T05:43:43;4.80;;;3.23;;
16689;SDS011;8458;52.220;9.884;2023-09-19T05:46:10;6.07;;;3.40;;
16689;SDS011;8458;52.220;9.884;2023-09-19T05:48:37;3.90;;;2.83;;
16689;SDS011;8458;52.220;9.884;2023-09-19T05:51:04;4.67;;;2.63;;
16689;SDS011;8458;52.220;9.884;2023-09-19T05:53:31;7.27;;;3.20;;
16689;SDS011;8458;52.220;9.884;2023-09-19T05:55:58;4.23;;;2.60;;
16689;SDS011;8458;52.220;9.884;2023-09-19T05:58:26;5.60;;;2.70;;
16689;SDS011;8458;52.220;9.884;2023-09-19T06:00:52;5.40;;;2.63;;
16689;SDS011;8458;52.220;9.884;2023-09-19T06:03:22;3.60;;;2.80;;
16689;SDS011;8458;52.220;9.884;2023-09-19T06:05:48;4.77;;;2.73;;
16689;SDS011;8458;52.220;9.884;2023-09-19T06:08:16;4.13;;;2.37;;
16689;SDS011;8458;52.220;9.884;2023-09-19T06:10:43;5.90;;;2.10;;
16689;SDS011;8458;52.220;9.884;2023-09-19T06:13:10;5.37;;;2.70;;
16689;SDS011;8458;52.220;9.884;2023-09-19T06:15:37;3.03;;;1.90;;
16689;SDS011;8458;52.220;9.884;2023-09-19T06:18:09;6.97;;;2.97;;
16689;SDS011;8458;52.220;9.884;2023-09-19T06:20:41;4.93;;;2.40;;
16689;SDS011;8458;52.220;9.884;2023-09-19T06:23:09;4.17;;;2.10;;
16689;SDS011;8458;52.220;9.884;2023-09-19T06:25:36;5.63;;;2.63;;
16689;SDS011;8458;52.220;9.884;2023-09-19T06:28:02;4.70;;;2.13;;
16689;SDS011;8458;52.220;9.884;2023-09-19T06:30:30;5.27;;;2.60;;
16689;SDS011;8458;52.220;9.884;2023-09-19T06:32:57;3.50;;;2.07;;
16689;SDS011;8458;52.220;9.884;2023-09-19T06:35:25;4.77;;;2.60;;
16689;SDS011;8458;52.220;9.884;2023-09-19T06:37:53;6.17;;;2.70;;
16689;SDS011;8458;52.220;9.884;2023-09-19T06:40:22;5.07;;;2.67;;
16689;SDS011;8458;52.220;9.884;2023-09-19T06:42:50;6.33;;;2.40;;
16689;SDS011;8458;52.220;9.884;2023-09-19T06:45:18;4.70;;;2.33;;
16689;SDS011;8458;52.220;9.884;2023-09-19T06:47:44;5.13;;;2.27;;
16689;SDS011;8458;52.220;9.884;2023-09-19T06:50:14;3.87;;;2.10;;
16689;SDS011;8458;52.220;9.884;2023-09-19T06:52:43;4.40;;;2.30;;
16689;SDS011;8458;52.220;9.884;2023-09-19T06:55:12;4.53;;;2.20;;
16689;SDS011;8458;52.220;9.884;2023-09-19T06:57:41;5.63;;;2.10;;
16689;SDS011;8458;52.220;9.884;2023-09-19T07:00:08;4.77;;;2.37;;
16689;SDS011;8458;52.220;9.884;2023-09-19T07:02:40;6.00;;;2.47;;
16689;SDS011;8458;52.220;9.884;2023-09-19T07:05:07;4.97;;;1.80;;
16689;SDS011;8458;52.220;9.884;2023-09-19T07:07:34;3.93;;;1.80;;
16689;SDS011;8458;52.220;9.884;2023-09-19T07:10:01;5.30;;;2.07;;
16689;SDS011;8458;52.220;9.884;2023-09-19T07:12:28;4.30;;;2.00;;
16689;SDS011;8458;52.220;9.884;2023-09-19T07:14:55;4.60;;;2.00;;
16689;SDS011;8458;52.220;9.884;2023-09-19T07:17:22;5.07;;;1.60;;
16689;SDS011;8458;52.220;9.884;2023-09-19T07:19:49;3.63;;;1.60;;
16689;SDS011;8458;52.220;9.884;2023-09-19T07:22:15;5.20;;;1.70;;
16689;SDS011;8458;52.220;9.884;2023-09-19T07:24:42;3.23;;;1.60;;
16689;SDS011;8458;52.220;9.884;2023-09-19T07:27:08;4.50;;;1.63;;
16689;SDS011;8458;52.220;9.884;2023-09-19T07:29:36;4.17;;;1.47;;
16689;SDS011;8458;52.220;9.884;2023-09-19T07:32:03;4.30;;;1.60;;
16689;SDS011;8458;52.220;9.884;2023-09-19T07:34:31;7.33;;;2.00;;
16689;SDS011;8458;52.220;9.884;2023-09-19T07:36:57;4.70;;;1.47;;
16689;SDS011;8458;52.220;9.884;2023-09-19T07:39:23;4.30;;;1.80;;
16689;SDS011;8458;52.220;9.884;2023-09-19T07:41:50;4.73;;;1.90;;
16689;SDS011;8458;52.220;9.884;2023-09-19T07:44:16;4.10;;;1.50;;
16689;SDS011;8458;52.220;9.884;2023-09-19T07:46:46;3.53;;;1.10;;
16689;SDS011;8458;52.220;9.884;2023-09-19T07:49:15;4.60;;;1.50;;
16689;SDS011;8458;52.220;9.884;2023-09-19T07:51:42;3.93;;;1.87;;
16689;SDS011;8458;52.220;9.884;2023-09-19T07:54:11;5.37;;;1.67;;
16689;SDS011;8458;52.220;9.884;2023-09-19T07:56:39;3.47;;;1.37;;
16689;SDS011;8458;52.220;9.884;2023-09-19T07:59:06;3.70;;;1.57;;
16689;SDS011;8458;52.220;9.884;2023-09-19T08:01:33;5.67;;;1.70;;
16689;SDS011;8458;52.220;9.884;2023-09-19T08:04:02;4.30;;;1.40;;
16689;SDS011;8458;52.220;9.884;2023-09-19T08:06:28;5.77;;;1.60;;
16689;SDS011;8458;52.220;9.884;2023-09-19T08:08:55;5.93;;;2.07;;
16689;SDS011;8458;52.220;9.884;2023-09-19T08:11:22;3.40;;;1.50;;
16689;SDS011;8458;52.220;9.884;2023-09-19T08:13:49;2.73;;;1.50;;
16689;SDS011;8458;52.220;9.884;2023-09-19T08:16:16;4.03;;;1.20;;
16689;SDS011;8458;52.220;9.884;2023-09-19T08:18:43;5.13;;;1.47;;
16689;SDS011;8458;52.220;9.884;2023-09-19T08:21:14;6.07;;;1.43;;
16689;SDS011;8458;52.220;9.884;2023-09-19T08:23:41;3.67;;;1.60;;
16689;SDS011;8458;52.220;9.884;2023-09-19T08:26:08;4.33;;;1.47;;
16689;SDS011;8458;52.220;9.884;2023-09-19T08:28:35;3.63;;;1.47;;
16689;SDS011;8458;52.220;9.884;2023-09-19T08:31:02;4.03;;;1.20;;
16689;SDS011;8458;52.220;9.884;2023-09-19T08:33:31;3.97;;;1.40;;
16689;SDS011;8458;52.220;9.884;2023-09-19T08:35:57;2.03;;;1.00;;
16689;SDS011;8458;52.220;9.884;2023-09-19T08:38:25;3.70;;;1.40;;
16689;SDS011;8458;52.220;9.884;2023-09-19T08:40:56;2.77;;;1.40;;
16689;SDS011;8458;52.220;9.884;2023-09-19T08:43:23;3.93;;;1.23;;
16689;SDS011;8458;52.220;9.884;2023-09-19T08:45:50;6.13;;;1.87;;
16689;SDS011;8458;52.220;9.884;2023-09-19T08:48:20;3.87;;;1.20;;
16689;SDS011;8458;52.220;9.884;2023-09-19T08:50:51;3.80;;;1.30;;
16689;SDS011;8458;52.220;9.884;2023-09-19T08:53:27;6.97;;;1.17;;
16689;SDS011;8458;52.220;9.884;2023-09-19T08:55:59;4.43;;;1.90;;
16689;SDS011;8458;52.220;9.884;2023-09-19T08:58:31;5.23;;;1.47;;
16689;SDS011;8458;52.220;9.884;2023-09-19T09:01:00;4.13;;;1.40;;
16689;SDS011;8458;52.220;9.884;2023-09-19T09:03:27;3.43;;;1.53;;
16689;SDS011;8458;52.220;9.884;2023-09-19T09:05:58;2.97;;;1.20;;
16689;SDS011;8458;52.220;9.884;2023-09-19T09:08:27;3.07;;;0.90;;
16689;SDS011;8458;52.220;9.884;2023-09-19T09:10:57;4.80;;;1.53;;
16689;SDS011;8458;52.220;9.884;2023-09-19T09:13:24;2.90;;;1.23;;
16689;SDS011;8458;52.220;9.884;2023-09-19T09:15:52;3.70;;;1.23;;
16689;SDS011;8458;52.220;9.884;2023-09-19T09:18:19;3.57;;;1.10;;
16689;SDS011;8458;52.220;9.884;2023-09-19T09:20:47;2.87;;;1.07;;
16689;SDS011;8458;52.220;9.884;2023-09-19T09:23:14;3.43;;;1.07;;
16689;SDS011;8458;52.220;9.884;2023-09-19T09:25:48;3.37;;;1.40;;
16689;SDS011;8458;52.220;9.884;2023-09-19T09:28:20;4.67;;;1.17;;
16689;SDS011;8458;52.220;9.884;2023-09-19T09:30:47;3.57;;;1.27;;
16689;SDS011;8458;52.220;9.884;2023-09-19T09:33:14;3.80;;;1.30;;
16689;SDS011;8458;52.220;9.884;2023-09-19T09:35:48;3.57;;;1.20;;
16689;SDS011;8458;52.220;9.884;2023-09-19T09:38:17;3.80;;;1.20;;
16689;SDS011;8458;52.220;9.884;2023-09-19T09:40:49;2.77;;;1.13;;
16689;SDS011;8458;52.220;9.884;2023-09-19T09:43:30;5.53;;;1.53;;
16689;SDS011;8458;52.220;9.884;2023-09-19T09:46:08;4.13;;;1.33;;
16689;SDS011;8458;52.220;9.884;2023-09-19T09:49:00;3.30;;;1.30;;
16689;SDS011;8458;52.220;9.884;2023-09-19T09:51:41;4.43;;;1.33;;
16689;SDS011;8458;52.220;9.884;2023-09-19T09:54:09;3.73;;;1.10;;
16689;SDS011;8458;52.220;9.884;2023-09-19T09:56:42;3.00;;;1.30;;
16689;SDS011;8458;52.220;9.884;2023-09-19T09:59:18;4.03;;;1.50;;
16689;SDS011;8458;52.220;9.884;2023-09-19T10:01:48;2.57;;;1.10;;
16689;SDS011;8458;52.220;9.884;2023-09-19T10:04:26;2.37;;;1.40;;
16689;SDS011;8458;52.220;9.884;2023-09-19T10:06:55;2.67;;;1.17;;
16689;SDS011;8458;52.220;9.884;2023-09-19T10:09:22;3.63;;;1.50;;
16689;SDS011;8458;52.220;9.884;2023-09-19T10:12:05;3.83;;;1.50;;
16689;SDS011;8458;52.220;9.884;2023-09-19T10:14:36;4.30;;;1.70;;
16689;SDS011;8458;52.220;9.884;2023-09-19T10:17:04;2.97;;;1.40;;
16689;SDS011;8458;52.220;9.884;2023-09-19T10:19:33;2.57;;;1.20;;
16689;SDS011;8458;52.220;9.884;2023-09-19T10:22:03;3.57;;;1.23;;
16689;SDS011;8458;52.220;9.884;2023-09-19T10:24:33;3.57;;;1.60;;
16689;SDS011;8458;52.220;9.884;2023-09-19T10:27:01;7.47;;;1.43;;
16689;SDS011;8458;52.220;9.884;2023-09-19T10:29:31;4.67;;;1.60;;
16689;SDS011;8458;52.220;9.884;2023-09-19T10:32:01;6.20;;;1.93;;
16689;SDS011;8458;52.220;9.884;2023-09-19T10:34:31;3.63;;;1.30;;
16689;SDS011;8458;52.220;9.884;2023-09-19T10:37:01;5.10;;;1.30;;
16689;SDS011;8458;52.220;9.884;2023-09-19T10:39:30;4.57;;;1.50;;
16689;SDS011;8458;52.220;9.884;2023-09-19T10:42:01;2.77;;;1.47;;
16689;SDS011;8458;52.220;9.884;2023-09-19T10:44:32;3.50;;;1.67;;
16689;SDS011;8458;52.220;9.884;2023-09-19T10:46:59;3.43;;;1.30;;
16689;SDS011;8458;52.220;9.884;2023-09-19T10:49:26;3.63;;;1.67;;
16689;SDS011;8458;52.220;9.884;2023-09-19T10:51:53;5.60;;;1.63;;
16689;SDS011;8458;52.220;9.884;2023-09-19T10:54:24;4.73;;;1.60;;
16689;SDS011;8458;52.220;9.884;2023-09-19T10:56:53;5.23;;;1.80;;
16689;SDS011;8458;52.220;9.884;2023-09-19T10:59:23;3.90;;;1.43;;
16689;SDS011;8458;52.220;9.884;2023-09-19T11:01:52;3.70;;;1.40;;
16689;SDS011;8458;52.220;9.884;2023-09-19T11:04:22;4.33;;;1.50;;
16689;SDS011;8458;52.220;9.884;2023-09-19T11:07:03;5.07;;;1.90;;
16689;SDS011;8458;52.220;9.884;2023-09-19T11:09:43;3.80;;;1.70;;
16689;SDS011;8458;52.220;9.884;2023-09-19T11:12:12;5.67;;;1.90;;
16689;SDS011;8458;52.220;9.884;2023-09-19T11:14:39;3.63;;;1.60;;
16689;SDS011;8458;52.220;9.884;2023-09-19T11:25:51;4.30;;;1.70;;
16689;SDS011;8458;52.220;9.884;2023-09-19T11:28:28;4.87;;;1.80;;
16689;SDS011;8458;52.220;9.884;2023-09-19T11:30:56;3.17;;;1.50;;
16689;SDS011;8458;52.220;9.884;2023-09-19T11:33:25;2.93;;;1.50;;
16689;SDS011;8458;52.220;9.884;2023-09-19T11:35:58;3.57;;;1.67;;
16689;SDS011;8458;52.220;9.884;2023-09-19T11:41:36;5.00;;;1.73;;
16689;SDS011;8458;52.220;9.884;2023-09-19T11:47:04;4.37;;;1.80;;
16689;SDS011;8458;52.220;9.884;2023-09-19T11:49:33;4.43;;;1.50;;
16689;SDS011;8458;52.220;9.884;2023-09-19T11:52:02;3.33;;;1.87;;
16689;SDS011;8458;52.220;9.884;2023-09-19T11:54:31;4.97;;;1.60;;
16689;SDS011;8458;52.220;9.884;2023-09-19T11:56:59;3.43;;;1.67;;
16689;SDS011;8458;52.220;9.884;2023-09-19T11:59:27;6.50;;;1.90;;
16689;SDS011;8458;52.220;9.884;2023-09-19T12:01:55;3.33;;;1.97;;
16689;SDS011;8458;52.220;9.884;2023-09-19T12:04:37;3.47;;;1.40;;
16689;SDS011;8458;52.220;9.884;2023-09-19T12:07:06;3.93;;;1.57;;
16689;SDS011;8458;52.220;9.884;2023-09-19T12:09:36;2.57;;;1.40;;
16689;SDS011;8458;52.220;9.884;2023-09-19T12:12:05;4.03;;;1.80;;
16689;SDS011;8458;52.220;9.884;2023-09-19T12:14:32;3.70;;;1.47;;
16689;SDS011;8458;52.220;9.884;2023-09-19T12:17:00;2.73;;;1.30;;
16689;SDS011;8458;52.220;9.884;2023-09-19T12:19:28;5.60;;;1.40;;
16689;SDS011;8458;52.220;9.884;2023-09-19T12:21:57;4.07;;;1.67;;
16689;SDS011;8458;52.220;9.884;2023-09-19T12:24:24;3.97;;;1.60;;
16689;SDS011;8458;52.220;9.884;2023-09-19T12:26:55;3.37;;;1.73;;
16689;SDS011;8458;52.220;9.884;2023-09-19T12:29:29;3.63;;;1.70;;
16689;SDS011;8458;52.220;9.884;2023-09-19T12:31:56;4.00;;;1.90;;
16689;SDS011;8458;52.220;9.884;2023-09-19T12:34:25;3.67;;;1.80;;
16689;SDS011;8458;52.220;9.884;2023-09-19T12:37:09;3.33;;;1.87;;
16689;SDS011;8458;52.220;9.884;2023-09-19T12:39:41;2.77;;;1.70;;
16689;SDS011;8458;52.220;9.884;2023-09-19T12:42:09;2.83;;;1.40;;
16689;SDS011;8458;52.220;9.884;2023-09-19T12:44:39;4.23;;;1.53;;
16689;SDS011;8458;52.220;9.884;2023-09-19T12:47:08;3.27;;;1.70;;
16689;SDS011;8458;52.220;9.884;2023-09-19T12:49:52;3.87;;;1.73;;
16689;SDS011;8458;52.220;9.884;2023-09-19T12:52:41;4.43;;;1.80;;
16689;SDS011;8458;52.220;9.884;2023-09-19T12:55:19;3.67;;;1.70;;
16689;SDS011;8458;52.220;9.884;2023-09-19T12:57:55;3.83;;;1.70;;
16689;SDS011;8458;52.220;9.884;2023-09-19T13:00:30;5.23;;;2.00;;
16689;SDS011;8458;52.220;9.884;2023-09-19T13:03:09;4.27;;;1.77;;
16689;SDS011;8458;52.220;9.884;2023-09-19T13:05:46;2.67;;;1.63;;
16689;SDS011;8458;52.220;9.884;2023-09-19T13:08:18;3.07;;;1.87;;
16689;SDS011;8458;52.220;9.884;2023-09-19T13:11:02;3.87;;;1.70;;
16689;SDS011;8458;52.220;9.884;2023-09-19T13:13:38;3.20;;;1.43;;
16689;SDS011;8458;52.220;9.884;2023-09-19T13:16:06;2.03;;;1.30;;
16689;SDS011;8458;52.220;9.884;2023-09-19T13:18:46;3.30;;;1.50;;
16689;SDS011;8458;52.220;9.884;2023-09-19T13:21:16;3.30;;;1.60;;
16689;SDS011;8458;52.220;9.884;2023-09-19T13:23:54;3.57;;;1.57;;
16689;SDS011;8458;52.220;9.884;2023-09-19T13:26:24;3.33;;;1.70;;
16689;SDS011;8458;52.220;9.884;2023-09-19T13:28:50;5.57;;;2.07;;
16689;SDS011;8458;52.220;9.884;2023-09-19T13:31:17;3.23;;;1.63;;
16689;SDS011;8458;52.220;9.884;2023-09-19T13:33:43;3.03;;;1.43;;
16689;SDS011;8458;52.220;9.884;2023-09-19T13:36:11;2.53;;;1.50;;
16689;SDS011;8458;52.220;9.884;2023-09-19T13:38:38;3.00;;;1.87;;
16689;SDS011;8458;52.220;9.884;2023-09-19T13:41:06;2.60;;;1.60;;
16689;SDS011;8458;52.220;9.884;2023-09-19T13:43:32;2.80;;;1.47;;
16689;SDS011;8458;52.220;9.884;2023-09-19T13:45:59;7.93;;;1.60;;
16689;SDS011;8458;52.220;9.884;2023-09-19T13:48:26;2.67;;;1.20;;
16689;SDS011;8458;52.220;9.884;2023-09-19T13:50:55;2.70;;;1.50;;
16689;SDS011;8458;52.220;9.884;2023-09-19T13:53:21;3.03;;;1.70;;
16689;SDS011;8458;52.220;9.884;2023-09-19T13:55:48;4.37;;;1.70;;
16689;SDS011;8458;52.220;9.884;2023-09-19T13:58:16;2.90;;;1.57;;
16689;SDS011;8458;52.220;9.884;2023-09-19T14:00:42;2.37;;;1.30;;
16689;SDS011;8458;52.220;9.884;2023-09-19T14:03:09;3.40;;;1.80;;
16689;SDS011;8458;52.220;9.884;2023-09-19T14:05:36;3.90;;;1.50;;
16689;SDS011;8458;52.220;9.884;2023-09-19T14:08:03;2.27;;;1.67;;
16689;SDS011;8458;52.220;9.884;2023-09-19T14:10:30;2.83;;;1.37;;
16689;SDS011;8458;52.220;9.884;2023-09-19T14:12:57;4.40;;;1.70;;
16689;SDS011;8458;52.220;9.884;2023-09-19T14:15:25;3.23;;;1.43;;
16689;SDS011;8458;52.220;9.884;2023-09-19T14:17:55;9.57;;;1.80;;
16689;SDS011;8458;52.220;9.884;2023-09-19T14:20:23;4.37;;;1.57;;
16689;SDS011;8458;52.220;9.884;2023-09-19T14:22:51;4.10;;;1.40;;
16689;SDS011;8458;52.220;9.884;2023-09-19T14:25:18;2.83;;;1.50;;
16689;SDS011;8458;52.220;9.884;2023-09-19T14:27:44;2.70;;;1.43;;
16689;SDS011;8458;52.220;9.884;2023-09-19T14:30:12;3.50;;;1.53;;
16689;SDS011;8458;52.220;9.884;2023-09-19T14:32:41;2.50;;;1.30;;
16689;SDS011;8458;52.220;9.884;2023-09-19T14:35:07;4.13;;;1.83;;
16689;SDS011;8458;52.220;9.884;2023-09-19T14:37:35;2.70;;;1.50;;
16689;SDS011;8458;52.220;9.884;2023-09-19T14:40:03;3.57;;;1.47;;
16689;SDS011;8458;52.220;9.884;2023-09-19T14:42:33;2.83;;;1.40;;
16689;SDS011;8458;52.220;9.884;2023-09-19T14:45:01;2.97;;;1.40;;
16689;SDS011;8458;52.220;9.884;2023-09-19T14:47:28;2.50;;;1.43;;
16689;SDS011;8458;52.220;9.884;2023-09-19T14:49:58;3.57;;;1.57;;
16689;SDS011;8458;52.220;9.884;2023-09-19T14:52:24;2.13;;;1.30;;
16689;SDS011;8458;52.220;9.884;2023-09-19T14:54:53;4.93;;;1.20;;
16689;SDS011;8458;52.220;9.884;2023-09-19T14:57:20;1.77;;;1.33;;
16689;SDS011;8458;52.220;9.884;2023-09-19T14:59:49;2.67;;;1.30;;
16689;SDS011;8458;52.220;9.884;2023-09-19T15:02:15;4.67;;;1.40;;
16689;SDS011;8458;52.220;9.884;2023-09-19T15:04:42;2.73;;;1.27;;
16689;SDS011;8458;52.220;9.884;2023-09-19T15:07:13;2.93;;;1.20;;
16689;SDS011;8458;52.220;9.884;2023-09-19T15:09:40;3.93;;;1.40;;
16689;SDS011;8458;52.220;9.884;2023-09-19T15:12:08;3.63;;;1.23;;
16689;SDS011;8458;52.220;9.884;2023-09-19T15:14:35;2.90;;;1.23;;
16689;SDS011;8458;52.220;9.884;2023-09-19T15:17:01;2.90;;;1.30;;
16689;SDS011;8458;52.220;9.884;2023-09-19T15:19:29;2.00;;;1.03;;
16689;SDS011;8458;52.220;9.884;2023-09-19T15:21:56;2.60;;;1.00;;
16689;SDS011;8458;52.220;9.884;2023-09-19T15:24:24;3.43;;;1.00;;
16689;SDS011;8458;52.220;9.884;2023-09-19T15:26:51;1.70;;;1.10;;